createdAt,value
2022-11-03T00:00:04.918Z,78.66
2022-11-03T00:02:09.613Z,78.75
2022-11-03T00:04:13.907Z,79.12
2022-11-03T00:06:15.851Z,79.36
2022-11-03T00:08:17.794Z,79.57
2022-11-03T00:10:19.729Z,80.13
2022-11-03T00:12:21.677Z,80.27
2022-11-03T00:14:23.658Z,80.01
2022-11-03T00:16:25.840Z,79.79
2022-11-03T00:18:27.848Z,79.47
2022-11-03T00:20:29.820Z,79.75
2022-11-03T00:22:33.444Z,80.06
2022-11-03T00:24:35.349Z,79.84
2022-11-03T00:26:38.475Z,80.39
2022-11-03T00:28:43.062Z,80.04
2022-11-03T00:30:45.105Z,80.34
2022-11-03T00:32:47.117Z,80.08
2022-11-03T00:34:49.398Z,80.37
2022-11-03T00:36:51.360Z,80.12
2022-11-03T00:38:53.842Z,79.83
2022-11-03T00:40:57.297Z,80.12
2022-11-03T00:42:59.519Z,79.75
2022-11-03T00:45:01.427Z,79.58
2022-11-03T00:47:03.368Z,79.61
2022-11-03T00:49:05.819Z,79.80
2022-11-03T00:51:11.345Z,79.67
2022-11-03T00:53:13.274Z,79.32
2022-11-03T00:55:15.578Z,79.07
2022-11-03T00:57:17.506Z,78.97
2022-11-03T00:59:19.423Z,78.55
2022-11-03T01:01:25.339Z,78.70
2022-11-03T01:03:27.540Z,78.80
2022-11-03T01:05:32.686Z,78.68
2022-11-03T01:07:34.629Z,78.90
2022-11-03T01:09:38.537Z,78.92
2022-11-03T01:11:43.596Z,78.84
2022-11-03T01:13:46.983Z,79.09
2022-11-03T01:15:48.999Z,79.08
2022-11-03T01:17:51.074Z,79.13
2022-11-03T01:19:53.378Z,78.76
2022-11-03T01:21:55.331Z,79.03
2022-11-03T01:23:57.384Z,79.01
2022-11-03T01:26:05.109Z,78.98
2022-11-03T01:28:07.036Z,78.75
2022-11-03T01:30:09.636Z,78.63
2022-11-03T01:32:12.801Z,78.75
2022-11-03T01:34:17.963Z,79.01
2022-11-03T01:36:20.836Z,79.02
2022-11-03T01:38:22.792Z,79.08
2022-11-03T01:40:24.995Z,79.02
2022-11-03T01:42:26.986Z,79.22
2022-11-03T01:44:35.070Z,79.19
2022-11-03T01:46:43.161Z,79.15
2022-11-03T01:48:50.116Z,79.19
2022-11-03T01:50:52.681Z,79.28
2022-11-03T01:52:58.411Z,79.52
2022-11-03T01:55:04.864Z,79.55
2022-11-03T01:57:14.049Z,79.51
2022-11-03T01:59:18.548Z,79.63
2022-11-03T02:01:21.209Z,79.94
2022-11-03T02:03:24.394Z,79.96
2022-11-03T02:05:27.474Z,79.93
2022-11-03T02:07:40.384Z,79.64
2022-11-03T02:09:42.285Z,79.83
2022-11-03T02:11:53.360Z,79.72
2022-11-03T02:13:55.124Z,79.81
2022-11-03T02:15:59.573Z,79.88
2022-11-03T02:18:03.139Z,79.94
2022-11-03T02:20:11.417Z,79.82
2022-11-03T02:22:27.163Z,79.54
2022-11-03T02:24:39.415Z,79.71
2022-11-03T02:26:44.008Z,79.76
2022-11-03T02:28:45.916Z,79.59
2022-11-03T02:31:07.457Z,79.38
2022-11-03T02:33:24.849Z,79.45
2022-11-03T02:35:31.623Z,79.39
2022-11-03T02:37:37.406Z,79.25
2022-11-03T02:39:45.469Z,79.46
2022-11-03T02:41:49.345Z,79.58
2022-11-03T02:43:52.754Z,79.42
2022-11-03T02:45:55.894Z,79.56
2022-11-03T02:48:01.970Z,79.40
2022-11-03T02:50:08.620Z,79.31
2022-11-03T02:52:33.469Z,79.65
2022-11-03T02:54:40.576Z,80.28
2022-11-03T02:56:50.733Z,80.46
2022-11-03T02:59:03.446Z,80.16
2022-11-03T03:01:15.371Z,80.22
2022-11-03T03:03:25.053Z,80.33
2022-11-03T03:05:32.129Z,81.09
2022-11-03T03:07:40.785Z,80.78
2022-11-03T03:09:51.739Z,81.31
2022-11-03T03:11:58.719Z,81.33
2022-11-03T03:14:00.530Z,81.78
2022-11-03T03:16:17.447Z,81.95
2022-11-03T03:18:24.634Z,82.66
2022-11-03T03:20:33.645Z,82.80
2022-11-03T03:22:43.239Z,82.95
2022-11-03T03:24:51.510Z,82.61
2022-11-03T03:26:59.141Z,82.81
2022-11-03T03:29:08.028Z,82.70
2022-11-03T03:31:14.572Z,82.66
2022-11-03T03:33:18.062Z,82.92
2022-11-03T03:35:25.898Z,82.81
2022-11-03T03:37:29.795Z,82.93
2022-11-03T03:39:36.378Z,82.78
2022-11-03T03:41:39.573Z,82.85
2022-11-03T03:43:42.637Z,82.89
2022-11-03T03:45:46.208Z,82.71
2022-11-03T03:47:48.324Z,82.71
2022-11-03T03:49:50.245Z,82.81
2022-11-03T03:51:52.110Z,83.21
2022-11-03T03:53:55.482Z,83.17
2022-11-03T03:55:58.934Z,83.27
2022-11-03T03:58:00.798Z,83.29
2022-11-03T04:00:02.545Z,83.75
2022-11-03T04:02:04.479Z,83.84
2022-11-03T04:04:06.489Z,84.18
2022-11-03T04:06:09.455Z,84.49
2022-11-03T04:08:12.959Z,84.40
2022-11-03T04:10:17.039Z,84.62
2022-11-03T04:12:28.737Z,84.36
2022-11-03T04:14:40.849Z,84.63
2022-11-03T04:16:52.680Z,84.45
2022-11-03T04:19:04.609Z,83.75
2022-11-03T04:21:19.663Z,83.99
2022-11-03T04:23:21.489Z,83.92
2022-11-03T04:25:23.379Z,83.74
2022-11-03T04:27:34.683Z,83.88
2022-11-03T04:29:36.460Z,83.82
2022-11-03T04:31:39.141Z,83.64
2022-11-03T04:33:41.845Z,83.49
2022-11-03T04:35:44.869Z,83.54
2022-11-03T04:37:51.783Z,83.50
2022-11-03T04:39:59.511Z,83.67
2022-11-03T04:42:01.352Z,82.72
2022-11-03T04:44:10.937Z,83.10
2022-11-03T04:46:16.044Z,83.26
2022-11-03T04:48:22.554Z,83.25
2022-11-03T04:50:24.652Z,83.00
2022-11-03T04:52:26.429Z,83.06
2022-11-03T04:54:28.334Z,82.53
2022-11-03T04:56:30.564Z,81.97
2022-11-03T04:58:35.739Z,81.24
2022-11-03T05:00:37.494Z,81.85
2022-11-03T05:02:39.349Z,81.95
2022-11-03T05:04:42.244Z,81.98
2022-11-03T05:06:51.798Z,81.77
2022-11-03T05:08:56.807Z,81.59
2022-11-03T05:11:00.449Z,81.51
2022-11-03T05:13:02.326Z,82.10
2022-11-03T05:15:21.765Z,82.39
2022-11-03T05:17:26.910Z,82.36
2022-11-03T05:19:34.189Z,82.58
2022-11-03T05:21:36.004Z,82.14
2022-11-03T05:23:41.091Z,82.03
2022-11-03T05:25:45.794Z,82.35
2022-11-03T05:27:47.664Z,81.60
2022-11-03T05:29:53.963Z,81.25
2022-11-03T05:31:58.554Z,81.30
2022-11-03T05:34:02.601Z,80.19
2022-11-03T05:36:13.975Z,79.70
2022-11-03T05:38:20.039Z,79.41
2022-11-03T05:40:25.789Z,79.54
2022-11-03T05:42:34.243Z,78.87
2022-11-03T05:44:37.963Z,78.67
2022-11-03T05:46:39.830Z,78.98
2022-11-03T05:48:44.952Z,79.65
2022-11-03T05:50:46.831Z,79.53
2022-11-03T05:52:51.637Z,79.67
2022-11-03T05:54:58.735Z,79.53
2022-11-03T05:57:01.641Z,80.44
2022-11-03T05:59:05.395Z,80.96
2022-11-03T06:01:16.950Z,81.25
2022-11-03T06:03:25.609Z,80.99
2022-11-03T06:05:28.059Z,81.08
2022-11-03T06:07:31.728Z,81.56
2022-11-03T06:09:34.106Z,81.58
2022-11-03T06:11:37.488Z,82.35
2022-11-03T06:13:39.989Z,82.49
2022-11-03T06:15:46.091Z,82.49
2022-11-03T06:17:47.904Z,82.92
2022-11-03T06:19:52.618Z,83.49
2022-11-03T06:21:58.391Z,84.06
2022-11-03T06:24:00.315Z,83.86
2022-11-03T06:26:04.040Z,82.92
2022-11-03T06:28:11.875Z,82.54
2022-11-03T06:30:31.355Z,81.93
2022-11-03T06:32:34.164Z,82.02
2022-11-03T06:34:39.335Z,82.02
2022-11-03T06:36:41.219Z,81.43
2022-11-03T06:38:46.971Z,81.28
2022-11-03T06:40:52.823Z,81.38
2022-11-03T06:42:55.919Z,81.47
2022-11-03T06:44:57.702Z,81.69
2022-11-03T06:47:07.087Z,81.72
2022-11-03T06:49:28.409Z,81.74
2022-11-03T06:51:31.005Z,81.35
2022-11-03T06:53:33.966Z,81.21
2022-11-03T06:55:38.776Z,81.50
2022-11-03T06:57:43.536Z,81.25
2022-11-03T06:59:46.028Z,81.50
2022-11-03T07:01:55.401Z,81.39
2022-11-03T07:04:01.486Z,81.69
2022-11-03T07:06:18.986Z,82.40
2022-11-03T07:08:25.001Z,82.51
2022-11-03T07:10:29.919Z,82.06
2022-11-03T07:12:31.953Z,81.85
2022-11-03T07:14:34.314Z,81.82
2022-11-03T07:16:41.975Z,82.00
2022-11-03T07:18:45.435Z,82.49
2022-11-03T07:20:49.013Z,82.30
2022-11-03T07:22:53.055Z,81.88
2022-11-03T07:25:00.234Z,81.38
2022-11-03T07:27:20.738Z,81.68
2022-11-03T07:29:26.497Z,82.56
2022-11-03T07:31:28.745Z,81.69
2022-11-03T07:33:32.274Z,81.84
2022-11-03T07:36:08.541Z,81.82
2022-11-03T07:38:04.233Z,81.86
2022-11-03T07:40:13.977Z,82.11
2022-11-03T07:42:20.251Z,82.16
2022-11-03T07:44:22.434Z,82.12
2022-11-03T07:46:25.705Z,81.95
2022-11-03T07:48:43.745Z,81.25
2022-11-03T07:50:46.505Z,80.50
2022-11-03T07:52:48.604Z,80.33
2022-11-03T07:54:53.668Z,80.44
2022-11-03T07:56:58.656Z,80.34
2022-11-03T07:59:05.477Z,80.89
2022-11-03T08:01:23.096Z,80.78
2022-11-03T08:03:36.196Z,80.35
2022-11-03T08:05:38.445Z,80.80
2022-11-03T08:07:40.416Z,80.89
2022-11-03T08:09:42.487Z,81.17
2022-11-03T08:11:45.244Z,80.95
2022-11-03T08:13:47.230Z,81.31
2022-11-03T08:15:49.169Z,80.70
2022-11-03T08:17:56.025Z,80.08
2022-11-03T08:19:58.327Z,80.74
2022-11-03T08:22:00.488Z,80.69
2022-11-03T08:24:02.694Z,80.81
2022-11-03T08:26:05.025Z,80.40
2022-11-03T08:28:07.177Z,80.53
2022-11-03T08:30:10.314Z,80.34
2022-11-03T08:32:12.235Z,80.40
2022-11-03T08:34:14.327Z,79.80
2022-11-03T08:36:16.358Z,80.13
2022-11-03T08:38:18.324Z,80.09
2022-11-03T08:40:20.526Z,79.97
2022-11-03T08:42:22.457Z,80.41
2022-11-03T08:44:24.563Z,80.42
2022-11-03T08:46:26.527Z,81.20
2022-11-03T08:48:29.006Z,81.21
2022-11-03T08:50:31.153Z,81.42
2022-11-03T08:52:33.316Z,80.98
2022-11-03T08:54:35.560Z,80.76
2022-11-03T08:56:37.691Z,80.99
2022-11-03T08:58:39.755Z,81.26
2022-11-03T09:00:41.998Z,80.70
2022-11-03T09:02:45.394Z,80.28
2022-11-03T09:04:47.473Z,79.59
2022-11-03T09:06:49.686Z,79.58
2022-11-03T09:11:13.847Z,79.87
2022-11-03T09:13:16.378Z,79.93
2022-11-03T09:15:18.815Z,80.25
2022-11-03T09:17:20.894Z,81.38
2022-11-03T09:19:23.282Z,80.73
2022-11-03T09:21:25.317Z,80.42
2022-11-03T09:23:27.455Z,80.21
2022-11-03T09:25:29.534Z,80.67
2022-11-03T09:27:32.026Z,80.58
2022-11-03T09:29:58.642Z,79.48
2022-11-03T09:31:56.095Z,78.81
2022-11-03T09:33:58.132Z,78.91
2022-11-03T09:36:00.383Z,79.56
2022-11-03T09:38:02.357Z,79.70
2022-11-03T09:40:05.005Z,80.21
2022-11-03T09:42:07.728Z,79.59
2022-11-03T09:44:10.678Z,79.39
2022-11-03T09:46:13.805Z,79.24
2022-11-03T09:48:15.864Z,79.18
2022-11-03T09:50:20.446Z,80.05
2022-11-03T09:52:25.322Z,79.00
2022-11-03T09:54:28.406Z,78.34
2022-11-03T09:56:31.595Z,78.55
2022-11-03T09:58:33.766Z,78.13
2022-11-03T10:00:35.934Z,78.50
2022-11-03T10:02:40.076Z,78.25
2022-11-03T10:04:42.113Z,77.79
2022-11-03T10:06:44.256Z,77.70
2022-11-03T10:08:47.566Z,77.76
2022-11-03T10:10:51.624Z,76.92
2022-11-03T10:12:53.856Z,78.17
2022-11-03T10:14:56.241Z,77.94
2022-11-03T10:17:00.916Z,78.26
2022-11-03T10:19:03.446Z,78.28
2022-11-03T10:21:18.654Z,77.26
2022-11-03T10:23:20.615Z,77.30
2022-11-03T10:25:35.915Z,77.47
2022-11-03T10:27:37.847Z,77.58
2022-11-03T10:29:41.309Z,78.65
2022-11-03T10:31:51.023Z,77.36
2022-11-03T10:33:55.443Z,77.76
2022-11-03T10:35:59.587Z,78.00
2022-11-03T10:38:20.880Z,77.94
2022-11-03T10:40:47.757Z,77.77
2022-11-03T10:42:59.839Z,77.61
2022-11-03T10:45:18.824Z,77.84
2022-11-03T10:47:26.087Z,77.47
2022-11-03T10:49:30.796Z,77.74
2022-11-03T10:51:34.782Z,77.58
2022-11-03T10:53:36.907Z,77.06
2022-11-03T10:55:41.509Z,77.34
2022-11-03T10:57:44.928Z,78.23
2022-11-03T10:59:49.988Z,77.69
2022-11-03T11:01:52.105Z,77.64
2022-11-03T11:03:55.553Z,77.70
2022-11-03T11:05:57.704Z,77.93
2022-11-03T11:08:00.067Z,77.85
2022-11-03T11:10:15.824Z,77.74
2022-11-03T11:12:23.003Z,77.37
2022-11-03T11:14:28.570Z,76.83
2022-11-03T11:16:48.205Z,76.52
2022-11-03T11:18:51.895Z,76.48
2022-11-03T11:20:54.786Z,76.81
2022-11-03T11:23:25.531Z,76.56
2022-11-03T11:25:56.832Z,76.42
2022-11-03T11:27:58.919Z,75.87
2022-11-03T11:30:02.445Z,76.71
2022-11-03T11:32:33.839Z,76.66
2022-11-03T11:34:36.724Z,76.57
2022-11-03T11:36:41.208Z,76.75
2022-11-03T11:38:55.917Z,76.35
2022-11-03T11:40:58.011Z,76.89
2022-11-03T11:43:04.834Z,76.00
2022-11-03T11:45:07.543Z,76.63
2022-11-03T11:47:22.115Z,76.38
2022-11-03T11:49:24.287Z,75.52
2022-11-03T11:51:26.636Z,75.47
2022-11-03T11:53:33.863Z,76.24
2022-11-03T11:55:49.363Z,77.03
2022-11-03T11:57:53.082Z,77.74
2022-11-03T11:59:55.456Z,77.99
2022-11-03T12:02:12.051Z,77.66
2022-11-03T12:04:20.834Z,74.97
2022-11-03T12:06:40.994Z,74.85
2022-11-03T12:08:43.758Z,75.19
2022-11-03T12:10:54.511Z,72.89
2022-11-03T12:12:57.045Z,72.34
2022-11-03T12:14:59.659Z,72.98
2022-11-03T12:17:22.851Z,73.07
2022-11-03T12:19:36.355Z,73.47
2022-11-03T12:21:49.007Z,71.12
2022-11-03T12:23:51.178Z,72.12
2022-11-03T12:25:53.382Z,74.04
2022-11-03T12:27:55.865Z,71.93
2022-11-03T12:29:59.973Z,70.15
2022-11-03T12:32:02.327Z,70.59
2022-11-03T12:34:04.461Z,71.10
2022-11-03T12:36:08.940Z,70.13
2022-11-03T12:38:11.054Z,70.11
2022-11-03T12:40:15.031Z,70.85
2022-11-03T12:42:17.184Z,71.26
2022-11-03T12:44:19.291Z,70.84
2022-11-03T12:46:22.608Z,69.83
2022-11-03T12:48:24.847Z,69.47
2022-11-03T12:50:27.784Z,69.95
2022-11-03T12:52:29.994Z,70.48
2022-11-03T12:54:32.904Z,70.78
2022-11-03T12:56:35.347Z,69.16
2022-11-03T12:58:37.956Z,69.08
2022-11-03T13:00:40.151Z,67.43
2022-11-03T13:02:42.582Z,67.99
2022-11-03T13:04:45.024Z,66.92
2022-11-03T13:06:47.115Z,66.75
2022-11-03T13:08:53.157Z,67.47
2022-11-03T13:10:55.511Z,67.88
2022-11-03T13:12:57.983Z,69.21
2022-11-03T13:15:03.541Z,68.68
2022-11-03T13:17:05.610Z,68.85
2022-11-03T13:19:10.160Z,69.13
2022-11-03T13:21:13.694Z,69.13
2022-11-03T13:23:18.750Z,69.71
2022-11-03T13:25:25.487Z,69.67
2022-11-03T13:27:27.693Z,70.25
2022-11-03T13:29:34.947Z,70.44
2022-11-03T13:31:37.855Z,70.24
2022-11-03T13:33:40.365Z,70.28
2022-11-03T13:35:42.630Z,70.65
2022-11-03T13:37:45.728Z,69.93
2022-11-03T13:39:48.277Z,70.19
2022-11-03T13:41:50.733Z,69.85
2022-11-03T13:43:53.159Z,69.91
2022-11-03T13:45:58.799Z,70.18
2022-11-03T13:50:24.405Z,69.47
2022-11-03T13:52:28.755Z,70.23
2022-11-03T13:59:30.816Z,71.26
2022-11-03T14:01:33.962Z,71.76
2022-11-03T14:05:58.477Z,70.67
2022-11-03T14:08:00.778Z,70.44
2022-11-03T14:10:04.610Z,70.41
2022-11-03T14:12:16.397Z,71.35
2022-11-03T14:14:18.644Z,71.66
2022-11-03T14:16:20.663Z,71.35
2022-11-03T14:18:22.978Z,71.27
2022-11-03T14:20:25.167Z,70.71
2022-11-03T14:22:27.385Z,70.11
2022-11-03T14:24:29.444Z,70.80
2022-11-03T14:26:46.141Z,70.65
2022-11-03T14:28:48.546Z,70.79
2022-11-03T14:30:50.698Z,69.71
2022-11-03T14:32:56.852Z,68.84
2022-11-03T14:35:01.789Z,68.73
2022-11-03T14:37:05.320Z,68.81
2022-11-03T14:39:07.640Z,68.49
2022-11-03T14:41:19.607Z,67.93
2022-11-03T14:43:21.774Z,66.47
2022-11-03T14:45:24.141Z,64.87
2022-11-03T14:47:26.349Z,62.91
2022-11-03T14:49:29.437Z,63.01
2022-11-03T14:51:32.093Z,62.98
2022-11-03T14:53:34.548Z,63.59
2022-11-03T14:55:36.776Z,63.05
2022-11-03T14:57:38.991Z,63.24
2022-11-03T14:59:41.272Z,63.13
2022-11-03T15:01:43.714Z,63.89
2022-11-03T15:03:46.406Z,64.26
2022-11-03T15:05:49.295Z,64.50
2022-11-03T15:07:51.867Z,63.29
2022-11-03T15:09:54.542Z,63.97
2022-11-03T15:11:57.728Z,63.72
2022-11-03T15:14:00.094Z,64.27
2022-11-03T15:16:03.073Z,64.67
2022-11-03T15:18:05.494Z,64.28
2022-11-03T15:20:09.612Z,64.46
2022-11-03T15:22:12.819Z,64.77
2022-11-03T15:26:37.655Z,65.04
2022-11-03T15:28:43.078Z,65.02
2022-11-03T15:30:45.771Z,65.58
2022-11-03T15:32:48.394Z,65.59
2022-11-03T15:34:50.840Z,66.11
2022-11-03T15:36:53.554Z,66.01
2022-11-03T15:38:55.919Z,64.80
2022-11-03T15:41:16.040Z,65.25
2022-11-03T15:43:19.106Z,65.36
2022-11-03T15:45:21.510Z,65.65
2022-11-03T15:47:24.195Z,65.13
2022-11-03T15:49:26.722Z,65.69
2022-11-03T15:51:29.330Z,65.98
2022-11-03T15:53:31.489Z,65.00
2022-11-03T15:55:33.888Z,64.48
2022-11-03T15:57:36.262Z,64.22
2022-11-03T15:59:39.512Z,64.22
2022-11-03T16:01:41.907Z,63.44
2022-11-03T16:03:44.268Z,63.35
2022-11-03T16:05:46.719Z,63.54
2022-11-03T16:07:49.249Z,63.53
2022-11-03T16:09:52.073Z,63.56
2022-11-03T16:11:54.700Z,63.55
2022-11-03T16:13:57.475Z,63.62
2022-11-03T16:15:59.984Z,63.96
2022-11-03T16:18:03.172Z,63.51
2022-11-03T16:20:06.386Z,63.60
2022-11-03T16:22:08.913Z,63.86
2022-11-03T16:24:11.957Z,64.04
2022-11-03T16:26:14.524Z,64.19
2022-11-03T16:28:17.048Z,64.58
2022-11-03T16:30:20.598Z,64.30
2022-11-03T16:32:23.226Z,64.00
2022-11-03T16:34:25.988Z,64.42
2022-11-03T16:36:28.371Z,64.78
2022-11-03T16:38:31.050Z,64.74
2022-11-03T16:40:33.483Z,65.13
2022-11-03T16:42:38.830Z,65.11
2022-11-03T16:44:41.302Z,65.41
2022-11-03T16:46:43.950Z,65.59
2022-11-03T16:48:46.331Z,66.17
2022-11-03T16:50:51.547Z,66.10
2022-11-03T16:52:57.338Z,65.84
2022-11-03T16:55:01.441Z,66.01
2022-11-03T16:57:04.179Z,66.59
2022-11-03T16:59:06.758Z,66.37
2022-11-03T17:01:09.595Z,66.50
2022-11-03T17:03:12.206Z,66.66
2022-11-03T17:05:17.087Z,66.79
2022-11-03T17:07:19.912Z,66.70
2022-11-03T17:09:22.442Z,66.46
2022-11-03T17:11:36.019Z,67.04
2022-11-03T17:13:38.799Z,66.99
2022-11-03T17:15:41.409Z,66.34
2022-11-03T17:17:44.375Z,66.35
2022-11-03T17:19:47.191Z,66.28
2022-11-03T17:21:49.823Z,66.27
2022-11-03T17:23:53.107Z,66.20
2022-11-03T17:25:57.065Z,66.58
2022-11-03T17:28:02.646Z,66.80
2022-11-03T17:30:09.237Z,67.04
2022-11-03T17:32:24.499Z,66.92
2022-11-03T17:34:30.607Z,67.00
2022-11-03T17:36:33.259Z,67.32
2022-11-03T17:38:35.812Z,67.22
2022-11-03T17:40:38.680Z,67.49
2022-11-03T17:42:41.490Z,67.45
2022-11-03T17:44:49.291Z,67.63
2022-11-03T17:46:51.875Z,67.72
2022-11-03T17:48:55.569Z,67.96
2022-11-03T17:50:58.624Z,67.65
2022-11-03T17:53:02.519Z,67.64
2022-11-03T17:55:16.389Z,67.78
2022-11-03T17:57:22.608Z,67.44
2022-11-03T17:59:25.277Z,67.54
2022-11-03T18:01:28.247Z,67.72
2022-11-03T18:03:31.439Z,67.54
2022-11-03T18:05:34.069Z,67.54
2022-11-03T18:07:36.776Z,67.76
2022-11-03T18:09:42.798Z,67.86
2022-11-03T18:11:56.718Z,67.85
2022-11-03T18:14:00.319Z,67.85
2022-11-03T18:16:09.523Z,68.36
2022-11-03T18:18:25.898Z,68.49
2022-11-03T18:20:31.335Z,68.57
2022-11-03T18:22:33.992Z,67.78
2022-11-03T18:24:36.608Z,68.27
2022-11-03T18:26:39.311Z,68.10
2022-11-03T18:28:42.012Z,67.85
2022-11-03T18:30:48.053Z,67.86
2022-11-03T18:32:50.927Z,67.62
2022-11-03T18:34:53.817Z,67.92
2022-11-03T18:36:56.414Z,67.88
2022-11-03T18:39:00.466Z,68.06
2022-11-03T18:41:03.329Z,67.88
2022-11-03T18:43:14.164Z,67.73
2022-11-03T18:45:17.654Z,67.48
2022-11-03T18:47:20.545Z,67.78
2022-11-03T18:49:24.897Z,67.72
2022-11-03T18:51:28.038Z,68.03
2022-11-03T18:53:30.613Z,67.81
2022-11-03T18:55:33.663Z,68.24
2022-11-03T18:57:37.648Z,68.45
2022-11-03T18:59:45.347Z,68.14
2022-11-03T19:01:51.382Z,68.72
2022-11-03T19:03:57.649Z,68.74
2022-11-03T19:06:00.530Z,68.88
2022-11-03T19:08:03.521Z,69.00
2022-11-03T19:10:10.310Z,68.54
2022-11-03T19:12:15.912Z,68.21
2022-11-03T19:14:29.684Z,68.49
2022-11-03T19:16:33.689Z,68.29
2022-11-03T19:18:36.707Z,68.42
2022-11-03T19:20:39.658Z,68.63
2022-11-03T19:22:42.211Z,68.48
2022-11-03T19:24:46.116Z,68.77
2022-11-03T19:27:01.078Z,69.52
2022-11-03T19:29:10.931Z,69.37
2022-11-03T19:31:26.036Z,69.61
2022-11-03T19:33:31.339Z,69.29
2022-11-03T19:35:35.747Z,69.37
2022-11-03T19:37:38.179Z,69.17
2022-11-03T19:39:41.592Z,69.88
2022-11-03T19:41:53.408Z,69.58
2022-11-03T19:43:55.668Z,69.63
2022-11-03T19:45:58.366Z,69.75
2022-11-03T19:50:27.488Z,69.79
2022-11-03T19:52:31.959Z,69.60
2022-11-03T19:54:34.669Z,69.68
2022-11-03T19:56:36.928Z,70.50
2022-11-03T19:58:39.475Z,70.04
2022-11-03T20:00:42.528Z,70.18
2022-11-03T20:02:45.233Z,70.45
2022-11-03T20:04:47.760Z,70.42
2022-11-03T20:06:50.034Z,70.36
2022-11-03T20:08:53.735Z,71.11
2022-11-03T20:10:56.291Z,70.49
2022-11-03T20:12:59.157Z,70.99
2022-11-03T20:15:01.719Z,71.35
2022-11-03T20:17:14.895Z,71.74
2022-11-03T20:19:17.365Z,71.29
2022-11-03T20:21:22.617Z,71.65
2022-11-03T20:23:27.776Z,71.34
2022-11-03T20:25:35.396Z,71.75
2022-11-03T20:27:37.883Z,71.53
2022-11-03T20:29:40.562Z,71.45
2022-11-03T20:31:45.276Z,71.65
2022-11-03T20:33:48.168Z,71.76
2022-11-03T20:35:53.795Z,72.20
2022-11-03T20:37:59.427Z,71.67
2022-11-03T20:40:01.858Z,71.74
2022-11-03T20:42:04.723Z,72.00
2022-11-03T20:44:07.265Z,72.19
2022-11-03T20:46:22.508Z,72.35
2022-11-03T20:48:25.052Z,72.05
2022-11-03T20:50:30.622Z,71.57
2022-11-03T20:52:33.230Z,71.26
2022-11-03T20:54:35.631Z,71.26
2022-11-03T20:56:38.337Z,71.44
2022-11-03T20:58:40.972Z,70.80
2022-11-03T21:00:45.253Z,70.61
2022-11-03T21:02:49.458Z,70.85
2022-11-03T21:04:52.080Z,69.82
2022-11-03T21:06:54.737Z,69.59
2022-11-03T21:09:00.426Z,70.07
2022-11-03T21:11:22.806Z,69.85
2022-11-03T21:13:25.430Z,69.78
2022-11-03T21:15:37.468Z,69.66
2022-11-03T21:17:49.437Z,69.73
2022-11-03T21:20:00.157Z,69.30
2022-11-03T21:22:02.768Z,69.35
2022-11-03T21:24:06.846Z,68.79
2022-11-03T21:26:13.531Z,68.99
2022-11-03T21:28:17.327Z,68.78
2022-11-03T21:30:20.278Z,69.07
2022-11-03T21:32:23.811Z,69.17
2022-11-03T21:34:26.911Z,68.92
2022-11-03T21:36:29.397Z,68.89
2022-11-03T21:38:31.665Z,68.45
2022-11-03T21:40:34.534Z,68.73
2022-11-03T21:42:46.453Z,68.36
2022-11-03T21:44:49.076Z,68.24
2022-11-03T21:46:51.703Z,68.37
2022-11-03T21:49:03.766Z,68.54
2022-11-03T21:51:06.431Z,68.71
2022-11-03T21:53:09.006Z,68.75
2022-11-03T21:55:11.789Z,68.53
2022-11-03T21:57:15.789Z,68.29
2022-11-03T21:59:18.206Z,67.95
2022-11-03T22:01:20.460Z,67.48
2022-11-03T22:03:23.207Z,67.31
2022-11-03T22:05:26.689Z,67.37
2022-11-03T22:07:32.987Z,67.31
2022-11-03T22:09:35.217Z,67.66
2022-11-03T22:11:37.370Z,67.84
2022-11-03T22:13:39.609Z,67.59
2022-11-03T22:15:51.450Z,68.02
2022-11-03T22:18:00.140Z,67.46
2022-11-03T22:20:11.436Z,67.29
2022-11-03T22:22:24.406Z,67.59
2022-11-03T22:24:36.428Z,67.38
2022-11-03T22:26:48.845Z,67.76
2022-11-03T22:29:10.847Z,67.37
2022-11-03T22:31:22.499Z,67.91
2022-11-03T22:33:26.899Z,67.87
2022-11-03T22:35:38.398Z,67.61
2022-11-03T22:37:40.605Z,67.72
2022-11-03T22:39:52.405Z,67.71
2022-11-03T22:42:06.626Z,67.80
2022-11-03T22:44:18.638Z,67.04
2022-11-03T22:46:21.176Z,67.45
2022-11-03T22:48:26.149Z,67.33
2022-11-03T22:50:28.397Z,66.75
2022-11-03T22:52:30.401Z,66.61
2022-11-03T22:54:32.432Z,66.11
2022-11-03T22:56:34.576Z,66.12
2022-11-03T22:58:36.735Z,65.72
2022-11-03T23:00:40.502Z,66.09
2022-11-03T23:02:42.829Z,65.63
2022-11-03T23:04:46.490Z,66.25
2022-11-03T23:06:48.767Z,66.45
2022-11-03T23:08:52.279Z,65.93
2022-11-03T23:10:54.437Z,66.78
2022-11-03T23:12:56.468Z,66.29
2022-11-03T23:15:08.428Z,66.65
2022-11-03T23:17:10.500Z,66.92
2022-11-03T23:19:24.556Z,66.47
2022-11-03T23:21:28.556Z,67.13
2022-11-03T23:23:40.724Z,66.92
2022-11-03T23:25:42.668Z,67.36
2022-11-03T23:27:44.743Z,67.65
2022-11-03T23:29:46.799Z,68.21
2022-11-03T23:31:49.046Z,68.28
2022-11-03T23:33:51.165Z,68.51
2022-11-03T23:35:53.638Z,68.15
2022-11-03T23:37:55.637Z,68.61
2022-11-03T23:39:57.652Z,68.88
2022-11-03T23:41:59.558Z,68.53
2022-11-03T23:44:01.487Z,68.21
2022-11-03T23:46:13.688Z,68.19
2022-11-03T23:48:25.667Z,68.73
2022-11-03T23:50:27.843Z,68.59
2022-11-03T23:52:29.857Z,68.99
2022-11-03T23:54:31.947Z,69.23
2022-11-03T23:56:46.666Z,69.17
2022-11-03T23:58:49.837Z,69.47
